Shamrock, Oklahoma
Current Conditions -  °F | °C
As of 3:35 PM on Thursday 23 Oct 2014 (Local Time) from KCUH Reporting Station
Clear Clear  
Wind Chill: 75°   Ceiling: Unl
Heat Index: 75°   Visibility: 10mi
Dew Point: 63°   Wind: 3mph
Humidity: 65%   Direction: 180°S
Pressure: 30.06"   Gusts: NA
Location:  35.91°N, 96.58°W
Report Text: KCUH 232035Z AUTO 18003KT 10SM CLR 24/17 A3006 RMK AO2
Loading
Personal Weather Stations






























Interactive Weather Map
Tropical Storm Tracking
New forecast layout! Learn more

10-Day Weather Forecast

Advertisements
Track Severe Weather on mobile